createdAt,value
2022-12-17T00:02:14.656Z,-7.99
2022-12-17T00:04:59.956Z,-8.02
2022-12-17T00:07:45.137Z,-7.81
2022-12-17T00:10:30.342Z,-7.64
2022-12-17T00:13:15.470Z,-7.50
2022-12-17T00:16:01.272Z,-7.19
2022-12-17T00:18:46.589Z,-7.29
2022-12-17T00:21:31.758Z,-7.28
2022-12-17T00:24:17.060Z,-7.30
2022-12-17T00:27:02.318Z,-7.08
2022-12-17T00:29:47.654Z,-6.90
2022-12-17T00:32:32.942Z,-6.77
2022-12-17T00:35:18.166Z,-6.61
2022-12-17T00:38:18.673Z,-6.60
2022-12-17T00:41:09.412Z,-6.56
2022-12-17T00:43:56.366Z,-6.42
2022-12-17T00:46:41.677Z,-6.42
2022-12-17T00:49:26.934Z,-6.32
2022-12-17T00:52:12.144Z,-6.16
2022-12-17T00:54:57.374Z,-5.88
2022-12-17T00:57:42.609Z,-6.09
2022-12-17T01:00:28.490Z,-6.10
2022-12-17T01:03:27.997Z,-6.02
2022-12-17T01:06:13.393Z,-5.87
2022-12-17T01:08:59.224Z,-5.75
2022-12-17T01:11:44.611Z,-5.75
2022-12-17T01:14:29.874Z,-5.68
2022-12-17T01:17:15.120Z,-5.66
2022-12-17T01:20:00.499Z,-5.63
2022-12-17T01:22:45.836Z,-5.67
2022-12-17T01:25:31.265Z,-5.69
2022-12-17T01:28:16.637Z,-5.65
2022-12-17T01:31:01.873Z,-5.80
2022-12-17T01:33:47.116Z,-5.74
2022-12-17T01:36:32.335Z,-5.74
2022-12-17T01:39:17.573Z,-5.84
2022-12-17T01:42:02.857Z,-5.89
2022-12-17T01:45:09.464Z,-6.07
2022-12-17T01:47:59.824Z,-6.18
2022-12-17T01:50:50.282Z,-6.26
2022-12-17T01:53:41.366Z,-6.37
2022-12-17T01:56:26.646Z,-6.22
2022-12-17T01:59:12.309Z,-6.43
2022-12-17T02:01:58.731Z,-6.23
2022-12-17T02:04:43.926Z,-6.44
2022-12-17T02:07:45.600Z,-6.38
2022-12-17T02:10:56.548Z,-6.50
2022-12-17T02:13:51.229Z,-6.29
2022-12-17T02:16:42.981Z,-6.62
2022-12-17T02:20:10.573Z,-6.51
2022-12-17T02:23:11.207Z,-6.54
2022-12-17T02:26:34.826Z,-6.43
2022-12-17T02:29:23.500Z,-6.09
2022-12-17T02:32:10.472Z,-5.98
2022-12-17T02:35:03.585Z,-5.92
2022-12-17T02:37:48.924Z,-6.04
2022-12-17T02:40:36.123Z,-5.97
2022-12-17T02:43:21.900Z,-6.31
2022-12-17T02:46:08.640Z,-6.16
2022-12-17T02:48:53.877Z,-6.15
2022-12-17T02:51:40.426Z,-6.12
2022-12-17T02:54:26.636Z,-6.32
2022-12-17T02:57:12.801Z,-6.24
2022-12-17T02:59:57.985Z,-6.22
2022-12-17T03:02:43.331Z,-6.35
2022-12-17T03:05:44.473Z,-6.52
2022-12-17T03:08:50.399Z,-6.40
2022-12-17T03:11:35.722Z,-6.32
2022-12-17T03:14:20.833Z,-6.33
2022-12-17T03:17:06.020Z,-6.49
2022-12-17T03:19:51.211Z,-6.20
2022-12-17T03:22:36.542Z,-6.07
2022-12-17T03:25:22.236Z,-6.03
2022-12-17T03:28:07.513Z,-5.98
2022-12-17T03:30:52.608Z,-5.92
2022-12-17T03:33:38.605Z,-5.90
2022-12-17T03:36:24.046Z,-5.98
2022-12-17T03:39:09.236Z,-5.99
2022-12-17T03:41:54.646Z,-5.99
2022-12-17T03:44:40.008Z,-5.98
2022-12-17T03:47:25.187Z,-6.12
2022-12-17T03:50:10.299Z,-6.20
2022-12-17T03:52:55.608Z,-6.24
2022-12-17T03:55:40.924Z,-6.16
2022-12-17T03:58:26.087Z,-6.24
2022-12-17T04:01:11.515Z,-6.65
2022-12-17T04:03:57.068Z,-6.79
2022-12-17T04:06:42.537Z,-6.70
2022-12-17T04:09:27.887Z,-6.91
2022-12-17T04:12:12.880Z,-6.92
2022-12-17T04:14:58.112Z,-7.24
2022-12-17T04:17:43.194Z,-7.29
2022-12-17T04:20:29.205Z,-7.59
2022-12-17T04:23:14.445Z,-7.62
2022-12-17T04:25:59.727Z,-7.64
2022-12-17T04:28:44.969Z,-7.72
2022-12-17T04:31:30.287Z,-7.63
2022-12-17T04:34:15.486Z,-7.54
2022-12-17T04:37:00.649Z,-7.70
2022-12-17T04:39:45.955Z,-7.69
2022-12-17T04:42:31.246Z,-7.85
2022-12-17T04:45:16.456Z,-7.72
2022-12-17T04:48:01.762Z,-8.07
2022-12-17T04:50:46.935Z,-8.22
2022-12-17T04:53:32.355Z,-8.52
2022-12-17T04:56:17.597Z,-8.59
2022-12-17T04:59:02.960Z,-8.63
2022-12-17T05:01:48.266Z,-8.84
2022-12-17T05:04:33.566Z,-8.98
2022-12-17T05:07:18.799Z,-8.89
2022-12-17T05:10:04.133Z,-8.85
2022-12-17T05:12:49.428Z,-8.79
2022-12-17T05:15:34.662Z,-8.73
2022-12-17T05:18:29.234Z,-8.40
2022-12-17T05:21:14.410Z,-8.26
2022-12-17T05:23:59.604Z,-8.13
2022-12-17T05:26:47.269Z,-7.84
2022-12-17T05:29:32.412Z,-7.78
2022-12-17T05:32:18.308Z,-7.71
2022-12-17T05:35:03.508Z,-7.55
2022-12-17T05:37:48.814Z,-7.40
2022-12-17T05:40:33.938Z,-7.28
2022-12-17T05:43:23.383Z,-7.15
2022-12-17T05:46:09.994Z,-7.00
2022-12-17T05:48:55.076Z,-6.86
2022-12-17T05:51:40.987Z,-6.88
2022-12-17T05:54:26.817Z,-6.75
2022-12-17T05:57:13.016Z,-6.71
2022-12-17T05:59:58.606Z,-6.66
2022-12-17T06:02:43.894Z,-6.54
2022-12-17T06:05:29.610Z,-6.50
2022-12-17T06:08:26.011Z,-6.42
2022-12-17T06:11:11.283Z,-6.43
2022-12-17T06:13:56.651Z,-6.32
2022-12-17T06:16:42.150Z,-6.29
2022-12-17T06:19:27.516Z,-6.26
2022-12-17T06:22:12.784Z,-6.15
2022-12-17T06:24:58.062Z,-6.14
2022-12-17T06:27:43.271Z,-6.05
2022-12-17T06:30:29.030Z,-6.03
2022-12-17T06:33:29.838Z,-5.98
2022-12-17T06:36:22.086Z,-6.09
2022-12-17T06:39:08.057Z,-5.95
2022-12-17T06:42:02.132Z,-5.82
2022-12-17T06:44:49.385Z,-5.74
2022-12-17T06:47:34.742Z,-5.72
2022-12-17T06:50:20.074Z,-5.70
2022-12-17T06:53:05.426Z,-5.71
2022-12-17T06:55:53.990Z,-5.65
2022-12-17T06:58:39.250Z,-5.72
2022-12-17T07:01:24.709Z,-5.79
2022-12-17T07:04:10.241Z,-5.94
2022-12-17T07:06:55.432Z,-6.02
2022-12-17T07:09:40.555Z,-6.00
2022-12-17T07:12:25.845Z,-5.92
2022-12-17T07:15:11.245Z,-6.00
2022-12-17T07:17:56.614Z,-5.97
2022-12-17T07:20:41.800Z,-5.79
2022-12-17T07:23:27.578Z,-5.65
2022-12-17T07:26:13.185Z,-5.63
2022-12-17T07:29:00.090Z,-5.65
2022-12-17T07:31:45.388Z,-5.67
2022-12-17T07:34:31.492Z,-5.55
2022-12-17T07:37:20.491Z,-5.59
2022-12-17T07:40:06.347Z,-5.55
2022-12-17T07:42:51.682Z,-5.49
2022-12-17T07:45:37.012Z,-5.48
2022-12-17T07:48:22.691Z,-5.56
2022-12-17T07:51:08.661Z,-5.58
2022-12-17T07:53:53.891Z,-5.49
2022-12-17T07:56:39.223Z,-5.38
2022-12-17T07:59:24.323Z,-5.28
2022-12-17T08:02:09.930Z,-5.31
2022-12-17T08:04:55.880Z,-5.26
2022-12-17T08:07:41.071Z,-5.32
2022-12-17T08:10:26.985Z,-5.49
2022-12-17T08:13:17.015Z,-5.37
2022-12-17T08:16:02.095Z,-5.34
2022-12-17T08:18:47.883Z,-5.27
2022-12-17T08:21:33.582Z,-5.17
2022-12-17T08:24:18.772Z,-5.09
2022-12-17T08:27:04.038Z,-5.06
2022-12-17T08:29:49.289Z,-5.09
2022-12-17T08:32:35.099Z,-5.02
2022-12-17T08:35:20.908Z,-4.96
2022-12-17T08:38:06.060Z,-5.06
2022-12-17T08:40:51.443Z,-5.05
2022-12-17T08:43:37.269Z,-5.07
2022-12-17T08:46:36.833Z,-4.97
2022-12-17T08:49:21.912Z,-4.82
2022-12-17T08:52:07.380Z,-4.83
2022-12-17T08:54:52.764Z,-4.82
2022-12-17T08:57:41.525Z,-4.89
2022-12-17T09:00:28.406Z,-4.57
2022-12-17T09:03:20.923Z,-4.62
2022-12-17T09:06:06.767Z,-4.57
2022-12-17T09:08:51.914Z,-4.60
2022-12-17T09:11:37.290Z,-4.59
2022-12-17T09:14:22.459Z,-4.51
2022-12-17T09:17:07.810Z,-4.43
2022-12-17T09:19:53.080Z,-4.07
2022-12-17T09:22:38.315Z,-4.01
2022-12-17T09:25:24.080Z,-4.03
2022-12-17T09:28:09.271Z,-3.86
2022-12-17T09:30:54.591Z,-4.12
2022-12-17T09:33:40.213Z,-3.67
2022-12-17T09:36:26.186Z,-3.73
2022-12-17T09:39:11.442Z,-3.91
2022-12-17T09:42:34.544Z,-3.83
2022-12-17T09:45:26.839Z,-3.67
2022-12-17T09:48:54.759Z,-3.88
2022-12-17T09:51:44.698Z,-3.76
2022-12-17T09:55:00.975Z,-3.55
2022-12-17T09:57:50.653Z,-3.69
2022-12-17T10:00:47.362Z,-3.85
2022-12-17T10:03:40.068Z,-3.79
2022-12-17T10:06:37.581Z,-3.45
2022-12-17T10:09:31.393Z,-3.42
2022-12-17T10:12:21.125Z,-3.68
2022-12-17T10:15:06.303Z,-3.60
2022-12-17T10:17:51.518Z,-3.45
2022-12-17T10:20:43.965Z,-3.32
2022-12-17T10:23:29.294Z,-3.26
2022-12-17T10:26:15.482Z,-3.34
2022-12-17T10:29:00.922Z,-3.60
2022-12-17T10:31:48.867Z,-3.69
2022-12-17T10:34:38.991Z,-3.29
2022-12-17T10:37:25.185Z,-3.56
2022-12-17T10:40:18.706Z,-3.58
2022-12-17T10:43:05.012Z,-3.26
2022-12-17T10:45:53.080Z,-3.28
2022-12-17T10:48:58.483Z,-2.90
2022-12-17T10:51:53.068Z,-2.91
2022-12-17T10:54:50.042Z,-3.32
2022-12-17T10:58:02.285Z,-3.11
2022-12-17T11:00:50.528Z,-3.03
2022-12-17T11:04:02.671Z,-3.24
2022-12-17T11:06:54.998Z,-3.09
2022-12-17T11:09:52.391Z,-3.15
2022-12-17T11:12:44.521Z,-2.75
2022-12-17T11:15:38.192Z,-2.83
2022-12-17T11:18:29.699Z,-2.93
2022-12-17T11:21:24.864Z,-3.17
2022-12-17T11:24:11.314Z,-3.34
2022-12-17T11:27:00.016Z,-3.33
2022-12-17T11:29:45.768Z,-3.26
2022-12-17T11:32:53.385Z,-3.27
2022-12-17T11:35:54.557Z,-3.21
2022-12-17T11:38:52.128Z,-3.30
2022-12-17T11:41:43.745Z,-3.22
2022-12-17T11:45:30.440Z,-3.00
2022-12-17T11:48:20.273Z,-3.13
2022-12-17T11:51:47.077Z,-3.14
2022-12-17T11:54:52.089Z,-3.00
2022-12-17T11:57:47.383Z,-3.05
2022-12-17T12:00:41.258Z,-2.92
2022-12-17T12:03:32.542Z,-2.97
2022-12-17T12:06:19.869Z,-2.97
2022-12-17T12:09:26.955Z,-3.01
2022-12-17T12:12:28.980Z,-3.12
2022-12-17T12:15:45.009Z,-3.24
2022-12-17T12:19:09.344Z,-3.37
2022-12-17T12:21:54.497Z,-3.44
2022-12-17T12:24:46.825Z,-3.14
2022-12-17T12:27:45.662Z,-3.25
2022-12-17T12:30:35.542Z,-3.13
2022-12-17T12:33:49.076Z,-3.18
2022-12-17T12:36:37.292Z,-3.29
2022-12-17T12:39:24.106Z,-3.32
2022-12-17T12:42:16.994Z,-3.37
2022-12-17T12:45:21.915Z,-3.32
2022-12-17T12:48:30.541Z,-3.39
2022-12-17T12:51:38.145Z,-3.26
2022-12-17T12:55:02.628Z,-3.31
2022-12-17T12:58:15.311Z,-3.44
2022-12-17T13:01:06.810Z,-3.48
2022-12-17T13:03:56.802Z,-3.30
2022-12-17T13:06:59.146Z,-3.24
2022-12-17T13:09:34.197Z,-3.23
2022-12-17T13:12:04.640Z,-3.26
2022-12-17T13:14:34.283Z,-3.24
2022-12-17T13:17:06.977Z,-3.17
2022-12-17T13:19:39.645Z,-3.23
2022-12-17T13:22:36.428Z,-3.20
2022-12-17T13:25:17.588Z,-3.22
2022-12-17T13:27:44.362Z,-3.23
2022-12-17T13:30:17.302Z,-3.19
2022-12-17T13:32:56.606Z,-3.35
2022-12-17T13:36:03.969Z,-3.44
2022-12-17T13:38:37.996Z,-3.42
2022-12-17T13:41:13.356Z,-3.39
2022-12-17T13:43:52.378Z,-3.44
2022-12-17T13:46:25.326Z,-3.41
2022-12-17T13:49:00.874Z,-3.50
2022-12-17T13:51:29.872Z,-3.44
2022-12-17T13:54:01.896Z,-3.37
2022-12-17T13:56:37.949Z,-3.43
2022-12-17T13:59:09.120Z,-3.45
2022-12-17T14:01:48.901Z,-3.49
2022-12-17T14:04:24.699Z,-3.34
2022-12-17T14:06:56.766Z,-3.60
2022-12-17T14:09:35.649Z,-3.77
2022-12-17T14:12:24.567Z,-3.92
2022-12-17T14:15:17.411Z,-3.85
2022-12-17T14:17:46.106Z,-3.92
2022-12-17T14:20:22.625Z,-3.97
2022-12-17T14:22:55.965Z,-4.01
2022-12-17T14:25:25.970Z,-4.06
2022-12-17T14:27:58.722Z,-4.16
2022-12-17T14:30:33.323Z,-4.30
2022-12-17T14:33:00.334Z,-4.61
2022-12-17T14:35:32.830Z,-4.56
2022-12-17T14:37:59.648Z,-4.60
2022-12-17T14:40:26.719Z,-4.76
2022-12-17T14:43:00.264Z,-4.85
2022-12-17T14:45:28.810Z,-4.91
2022-12-17T14:48:00.899Z,-4.76
2022-12-17T14:50:29.915Z,-4.78
2022-12-17T14:52:58.813Z,-4.81
2022-12-17T14:55:38.727Z,-4.85
2022-12-17T14:58:11.343Z,-5.01
2022-12-17T15:00:39.924Z,-5.25
2022-12-17T15:03:20.134Z,-5.59
2022-12-17T15:05:51.509Z,-5.63
2022-12-17T15:08:19.469Z,-5.42
2022-12-17T15:10:46.181Z,-5.44
2022-12-17T15:13:13.329Z,-5.44
2022-12-17T15:15:40.004Z,-5.47
2022-12-17T15:18:06.681Z,-5.52
2022-12-17T15:20:33.420Z,-5.46
2022-12-17T15:23:01.756Z,-5.51
2022-12-17T15:25:28.521Z,-5.72
2022-12-17T15:27:55.500Z,-5.87
2022-12-17T15:30:22.308Z,-6.01
2022-12-17T15:32:48.944Z,-5.93
2022-12-17T15:35:15.608Z,-5.99
2022-12-17T15:37:42.303Z,-6.34
2022-12-17T15:40:11.903Z,-6.28
2022-12-17T15:43:01.662Z,-6.59
2022-12-17T15:45:32.752Z,-6.48
2022-12-17T15:47:59.410Z,-6.45
2022-12-17T15:50:26.087Z,-6.93
2022-12-17T15:52:52.721Z,-6.73
2022-12-17T15:55:19.411Z,-7.13
2022-12-17T15:57:46.413Z,-7.00
2022-12-17T16:00:13.462Z,-7.10
2022-12-17T16:02:40.465Z,-7.40
2022-12-17T16:05:08.121Z,-7.26
2022-12-17T16:07:34.949Z,-7.38
2022-12-17T16:10:05.426Z,-7.48
2022-12-17T16:12:33.626Z,-7.28
2022-12-17T16:15:00.352Z,-7.52
2022-12-17T16:17:27.133Z,-7.22
2022-12-17T16:19:53.872Z,-7.20
2022-12-17T16:22:20.655Z,-7.21
2022-12-17T16:24:47.595Z,-7.35
2022-12-17T16:27:15.829Z,-7.25
2022-12-17T16:29:42.504Z,-7.75
2022-12-17T16:32:09.211Z,-7.82
2022-12-17T16:34:35.911Z,-8.17
2022-12-17T16:37:02.692Z,-8.27
2022-12-17T16:39:29.384Z,-8.27
2022-12-17T16:41:56.112Z,-8.33
2022-12-17T16:44:22.882Z,-8.04
2022-12-17T16:46:49.850Z,-7.92
2022-12-17T16:49:19.350Z,-8.03
2022-12-17T16:51:48.347Z,-8.00
2022-12-17T16:54:17.328Z,-8.18
2022-12-17T16:56:46.226Z,-8.45
2022-12-17T16:59:14.321Z,-8.37
2022-12-17T17:01:44.800Z,-8.49
2022-12-17T17:04:15.864Z,-8.42
2022-12-17T17:06:48.738Z,-8.35
2022-12-17T17:09:16.231Z,-8.26
2022-12-17T17:11:48.154Z,-8.19
2022-12-17T17:14:17.915Z,-8.52
2022-12-17T17:16:44.668Z,-8.50
2022-12-17T17:19:11.313Z,-8.22
2022-12-17T17:21:39.892Z,-8.24
2022-12-17T17:24:21.384Z,-8.32
2022-12-17T17:26:50.301Z,-8.39
2022-12-17T17:29:17.132Z,-8.44
2022-12-17T17:32:14.221Z,-8.66
2022-12-17T17:34:30.706Z,-8.89
2022-12-17T17:36:57.376Z,-8.82
2022-12-17T17:39:24.065Z,-8.58
2022-12-17T17:41:50.724Z,-8.38
2022-12-17T17:44:17.373Z,-8.28
2022-12-17T17:46:44.308Z,-8.05
2022-12-17T17:49:11.847Z,-7.85
2022-12-17T17:54:28.671Z,-7.60
2022-12-17T17:56:55.575Z,-7.38
2022-12-17T17:59:30.865Z,-7.28
2022-12-17T18:02:00.660Z,-6.99
2022-12-17T18:04:28.255Z,-6.29
2022-12-17T18:09:41.981Z,-5.99
2022-12-17T18:12:27.303Z,-5.64
2022-12-17T18:15:13.594Z,-5.51
2022-12-17T18:17:41.698Z,-5.40
2022-12-17T18:20:10.253Z,-5.37
2022-12-17T18:22:38.401Z,-5.22
2022-12-17T18:25:05.507Z,-5.26
2022-12-17T18:27:32.267Z,-5.21
2022-12-17T18:30:00.418Z,-5.02
2022-12-17T18:32:27.133Z,-5.17
2022-12-17T18:34:53.945Z,-5.08
2022-12-17T18:37:20.755Z,-5.09
2022-12-17T18:39:49.055Z,-5.10
2022-12-17T18:42:34.322Z,-4.96
2022-12-17T18:45:03.287Z,-4.85
2022-12-17T18:47:30.246Z,-4.92
2022-12-17T18:49:57.410Z,-4.78
2022-12-17T18:52:24.753Z,-4.66
2022-12-17T18:54:51.681Z,-4.68
2022-12-17T18:57:22.625Z,-4.71
2022-12-17T18:59:49.341Z,-4.97
2022-12-17T19:02:16.248Z,-4.92
2022-12-17T19:04:44.523Z,-5.04
2022-12-17T19:07:11.269Z,-4.92
2022-12-17T19:09:40.139Z,-5.00
2022-12-17T19:12:09.120Z,-5.07
2022-12-17T19:14:36.501Z,-4.96
2022-12-17T19:17:04.115Z,-4.94
2022-12-17T19:19:30.873Z,-4.96
2022-12-17T19:21:59.998Z,-5.02
2022-12-17T19:24:27.888Z,-5.05
2022-12-17T19:26:54.658Z,-5.04
2022-12-17T19:29:22.364Z,-5.00
2022-12-17T19:31:49.235Z,-4.94
2022-12-17T19:34:18.519Z,-4.97
2022-12-17T19:36:45.855Z,-4.90
2022-12-17T19:39:15.900Z,-4.72
2022-12-17T19:41:42.599Z,-4.83
2022-12-17T19:44:13.741Z,-4.74
2022-12-17T19:46:41.036Z,-4.89
2022-12-17T19:49:10.691Z,-4.72
2022-12-17T19:51:39.590Z,-4.84
2022-12-17T19:54:09.189Z,-4.72
2022-12-17T19:56:36.540Z,-4.65
2022-12-17T19:59:07.374Z,-4.78
2022-12-17T20:01:41.547Z,-4.73
2022-12-17T20:04:10.676Z,-4.58
2022-12-17T20:06:37.718Z,-4.81
2022-12-17T20:09:06.169Z,-4.73
2022-12-17T20:11:33.330Z,-4.63
2022-12-17T20:14:10.786Z,-4.66
2022-12-17T20:16:40.523Z,-4.55
2022-12-17T20:19:11.093Z,-4.78
2022-12-17T20:21:38.877Z,-4.69
2022-12-17T20:24:05.933Z,-4.71
2022-12-17T20:26:33.008Z,-4.65
2022-12-17T20:28:59.728Z,-4.81
2022-12-17T20:31:27.976Z,-4.75
2022-12-17T20:33:55.052Z,-4.74
2022-12-17T20:36:23.237Z,-4.83
2022-12-17T20:38:50.115Z,-4.77
2022-12-17T20:41:20.104Z,-4.89
2022-12-17T20:43:47.778Z,-4.60
2022-12-17T20:46:14.752Z,-4.69
2022-12-17T20:48:43.718Z,-4.71
2022-12-17T20:51:14.103Z,-4.68
2022-12-17T20:53:41.313Z,-4.70
2022-12-17T20:56:10.924Z,-4.79
2022-12-17T20:58:39.533Z,-4.81
2022-12-17T21:01:15.182Z,-4.96
2022-12-17T21:03:42.905Z,-4.90
2022-12-17T21:06:23.718Z,-4.84
2022-12-17T21:08:52.529Z,-4.89
2022-12-17T21:11:22.283Z,-4.78
2022-12-17T21:13:49.981Z,-4.79
2022-12-17T21:16:28.936Z,-4.77
2022-12-17T21:18:56.985Z,-4.82
2022-12-17T21:21:29.892Z,-4.79
2022-12-17T21:23:57.332Z,-4.72
2022-12-17T21:26:31.185Z,-4.71
2022-12-17T21:28:58.275Z,-4.82
2022-12-17T21:31:35.426Z,-4.88
2022-12-17T21:34:04.025Z,-4.74
2022-12-17T21:36:32.998Z,-4.70
2022-12-17T21:39:00.734Z,-4.59
2022-12-17T21:41:32.494Z,-4.67
2022-12-17T21:44:02.255Z,-4.50
2022-12-17T21:46:30.126Z,-4.55
2022-12-17T21:48:58.780Z,-4.41
2022-12-17T21:51:26.010Z,-4.45
2022-12-17T21:54:01.406Z,-4.40
2022-12-17T21:56:29.291Z,-4.47
2022-12-17T21:59:01.050Z,-4.60
2022-12-17T22:01:31.928Z,-4.45
2022-12-17T22:04:02.813Z,-4.48
2022-12-17T22:06:33.072Z,-4.57
2022-12-17T22:09:07.828Z,-4.55
2022-12-17T22:11:39.002Z,-4.58
2022-12-17T22:14:09.442Z,-4.53
2022-12-17T22:16:43.274Z,-4.55
2022-12-17T22:19:11.753Z,-4.50
2022-12-17T22:21:40.481Z,-4.37
2022-12-17T22:24:11.287Z,-4.27
2022-12-17T22:26:37.925Z,-4.26
2022-12-17T22:29:04.684Z,-4.45
2022-12-17T22:31:51.024Z,-4.56
2022-12-17T22:35:08.828Z,-4.52
2022-12-17T22:40:06.176Z,-4.48
2022-12-17T22:44:29.346Z,-4.67
2022-12-17T22:44:44.261Z,-4.56
2022-12-17T22:45:51.726Z,-4.52
2022-12-17T22:48:21.461Z,-4.51
2022-12-17T22:50:51.004Z,-4.67
2022-12-17T22:53:22.856Z,-4.74
2022-12-17T22:55:50.828Z,-4.58
2022-12-17T22:58:18.636Z,-4.51
2022-12-17T23:00:45.377Z,-4.42
2022-12-17T23:03:12.581Z,-4.36
2022-12-17T23:05:39.393Z,-4.30
2022-12-17T23:08:06.295Z,-4.25
2022-12-17T23:10:33.168Z,-4.35
2022-12-17T23:12:59.940Z,-4.51
2022-12-17T23:15:34.533Z,-4.56
2022-12-17T23:18:03.934Z,-4.51
2022-12-17T23:20:33.429Z,-4.57
2022-12-17T23:23:00.804Z,-4.59
2022-12-17T23:25:29.198Z,-4.61
2022-12-17T23:27:56.969Z,-4.45
2022-12-17T23:30:23.600Z,-4.58
2022-12-17T23:32:50.411Z,-4.51
2022-12-17T23:35:17.630Z,-4.52
2022-12-17T23:37:44.445Z,-4.45
2022-12-17T23:40:13.537Z,-4.44
2022-12-17T23:42:40.421Z,-4.44
2022-12-17T23:45:08.251Z,-4.42
2022-12-17T23:47:35.601Z,-4.41
2022-12-17T23:50:02.688Z,-4.62
2022-12-17T23:52:29.403Z,-4.60
2022-12-17T23:54:56.241Z,-4.63
2022-12-17T23:57:23.069Z,-4.79
2022-12-17T23:59:49.779Z,-4.71
